Terminal Aerodrome Forecast
Issued by NWS Tampa Bay Area, FL

Home | Current Version | Previous Version | Text Only | Print | Product List | Glossary On
Versions: 1 2 3 4 5 6 7 8 9 10 11 12
000
FTUS42 KTBW 011722
TAFSRQ
TAF
KSRQ 011722Z 0118/0218 24011KT P6SM SCT045 SCT250
     FM012200 28010KT P6SM FEW050 SCT250
     FM020200 11007KT P6SM FEW040 SCT250
     FM020900 12006KT P6SM SCT015 SCT150 SCT250
     FM021400 16010KT P6SM SCT035 SCT150 SCT250
     FM021700 23010KT P6SM SCT045 SCT150 SCT250=

USA.gov is the U.S. government's official web portal to all federal, state and local government web resources and services.